sensor_id;sensor_type;location;lat;lon;timestamp;temperature;humidity
22923;DHT22;11627;51.322;22.816;2022-09-09T00:02:23;13.50;99.90
22923;DHT22;11627;51.322;22.816;2022-09-09T00:05:21;13.50;99.90
22923;DHT22;11627;51.322;22.816;2022-09-09T00:07:54;13.30;99.90
22923;DHT22;11627;51.322;22.816;2022-09-09T00:10:39;13.30;99.90
22923;DHT22;11627;51.322;22.816;2022-09-09T00:13:32;13.30;1.00
22923;DHT22;11627;51.322;22.816;2022-09-09T00:16:09;13.20;1.00
22923;DHT22;11627;51.322;22.816;2022-09-09T00:21:38;13.30;1.00
22923;DHT22;11627;51.322;22.816;2022-09-09T00:24:17;13.10;1.00
22923;DHT22;11627;51.322;22.816;2022-09-09T00:26:56;13.10;1.00
22923;DHT22;11627;51.322;22.816;2022-09-09T00:32:20;13.30;1.00
22923;DHT22;11627;51.322;22.816;2022-09-09T00:34:56;13.10;1.00
22923;DHT22;11627;51.322;22.816;2022-09-09T00:37:26;13.30;1.00
22923;DHT22;11627;51.322;22.816;2022-09-09T00:39:58;12.90;1.00
22923;DHT22;11627;51.322;22.816;2022-09-09T00:42:42;13.00;1.00
22923;DHT22;11627;51.322;22.816;2022-09-09T00:46:20;13.50;1.00
22923;DHT22;11627;51.322;22.816;2022-09-09T00:52:03;13.30;1.00
22923;DHT22;11627;51.322;22.816;2022-09-09T00:54:52;13.00;1.00
22923;DHT22;11627;51.322;22.816;2022-09-09T01:00:32;13.10;1.00
22923;DHT22;11627;51.322;22.816;2022-09-09T01:06:14;13.10;1.00
22923;DHT22;11627;51.322;22.816;2022-09-09T01:11:58;12.80;1.00
22923;DHT22;11627;51.322;22.816;2022-09-09T01:20:08;12.80;1.00
22923;DHT22;11627;51.322;22.816;2022-09-09T01:28:14;13.30;1.00
22923;DHT22;11627;51.322;22.816;2022-09-09T01:30:42;13.10;1.00
22923;DHT22;11627;51.322;22.816;2022-09-09T01:33:14;12.80;1.00
22923;DHT22;11627;51.322;22.816;2022-09-09T01:36:11;13.00;1.00
22923;DHT22;11627;51.322;22.816;2022-09-09T01:38:53;13.30;1.00
22923;DHT22;11627;51.322;22.816;2022-09-09T01:41:20;13.00;1.00
22923;DHT22;11627;51.322;22.816;2022-09-09T01:46:13;13.20;1.00
22923;DHT22;11627;51.322;22.816;2022-09-09T01:48:40;13.10;1.00
22923;DHT22;11627;51.322;22.816;2022-09-09T01:51:08;13.10;1.00
22923;DHT22;11627;51.322;22.816;2022-09-09T01:53:36;13.10;1.00
22923;DHT22;11627;51.322;22.816;2022-09-09T01:56:21;13.20;1.00
22923;DHT22;11627;51.322;22.816;2022-09-09T01:59:08;13.20;1.00
22923;DHT22;11627;51.322;22.816;2022-09-09T02:01:46;12.80;1.00
22923;DHT22;11627;51.322;22.816;2022-09-09T02:04:38;13.00;1.00
22923;DHT22;11627;51.322;22.816;2022-09-09T02:07:49;13.00;1.00
22923;DHT22;11627;51.322;22.816;2022-09-09T02:10:24;13.00;1.00
22923;DHT22;11627;51.322;22.816;2022-09-09T02:13:04;13.00;1.00
22923;DHT22;11627;51.322;22.816;2022-09-09T02:15:56;13.10;1.00
22923;DHT22;11627;51.322;22.816;2022-09-09T02:19:08;12.90;1.00
22923;DHT22;11627;51.322;22.816;2022-09-09T02:21:39;13.00;1.00
22923;DHT22;11627;51.322;22.816;2022-09-09T02:24:08;13.20;1.00
22923;DHT22;11627;51.322;22.816;2022-09-09T02:26:39;13.00;1.00
22923;DHT22;11627;51.322;22.816;2022-09-09T02:29:20;12.80;1.00
22923;DHT22;11627;51.322;22.816;2022-09-09T02:31:50;12.70;1.00
22923;DHT22;11627;51.322;22.816;2022-09-09T02:34:20;12.60;1.00
22923;DHT22;11627;51.322;22.816;2022-09-09T02:36:48;13.00;1.00
22923;DHT22;11627;51.322;22.816;2022-09-09T02:39:15;12.70;1.00
22923;DHT22;11627;51.322;22.816;2022-09-09T02:41:42;12.80;1.00
22923;DHT22;11627;51.322;22.816;2022-09-09T02:44:16;13.00;1.00
22923;DHT22;11627;51.322;22.816;2022-09-09T02:55:46;12.70;1.00
22923;DHT22;11627;51.322;22.816;2022-09-09T02:58:17;12.60;1.00
22923;DHT22;11627;51.322;22.816;2022-09-09T03:00:48;12.90;1.00
22923;DHT22;11627;51.322;22.816;2022-09-09T03:03:15;12.50;1.00
22923;DHT22;11627;51.322;22.816;2022-09-09T03:05:42;12.80;1.00
22923;DHT22;11627;51.322;22.816;2022-09-09T03:08:09;12.70;1.00
22923;DHT22;11627;51.322;22.816;2022-09-09T03:10:36;12.60;1.00
22923;DHT22;11627;51.322;22.816;2022-09-09T03:13:03;13.00;1.00
22923;DHT22;11627;51.322;22.816;2022-09-09T03:17:58;12.70;1.00
22923;DHT22;11627;51.322;22.816;2022-09-09T03:20:25;12.90;1.00
22923;DHT22;11627;51.322;22.816;2022-09-09T03:22:54;12.60;1.00
22923;DHT22;11627;51.322;22.816;2022-09-09T03:25:21;12.60;1.00
22923;DHT22;11627;51.322;22.816;2022-09-09T03:27:52;12.90;1.00
22923;DHT22;11627;51.322;22.816;2022-09-09T03:30:23;12.70;1.00
22923;DHT22;11627;51.322;22.816;2022-09-09T03:32:51;12.60;1.00
22923;DHT22;11627;51.322;22.816;2022-09-09T03:37:44;12.90;1.00
22923;DHT22;11627;51.322;22.816;2022-09-09T03:40:10;12.90;1.00
22923;DHT22;11627;51.322;22.816;2022-09-09T03:42:37;12.70;1.00
22923;DHT22;11627;51.322;22.816;2022-09-09T03:45:07;12.80;1.00
22923;DHT22;11627;51.322;22.816;2022-09-09T03:47:35;12.80;1.00
22923;DHT22;11627;51.322;22.816;2022-09-09T03:52:27;12.70;1.00
22923;DHT22;11627;51.322;22.816;2022-09-09T03:54:53;12.60;1.00
22923;DHT22;11627;51.322;22.816;2022-09-09T03:57:20;12.70;1.00
22923;DHT22;11627;51.322;22.816;2022-09-09T03:59:47;12.70;1.00
22923;DHT22;11627;51.322;22.816;2022-09-09T04:04:38;12.70;1.00
22923;DHT22;11627;51.322;22.816;2022-09-09T04:07:05;12.80;1.00
22923;DHT22;11627;51.322;22.816;2022-09-09T04:09:32;12.70;1.00
22923;DHT22;11627;51.322;22.816;2022-09-09T04:14:26;12.80;1.00
22923;DHT22;11627;51.322;22.816;2022-09-09T04:16:54;12.90;1.00
22923;DHT22;11627;51.322;22.816;2022-09-09T04:19:22;13.00;1.00
22923;DHT22;11627;51.322;22.816;2022-09-09T04:21:48;13.20;1.00
22923;DHT22;11627;51.322;22.816;2022-09-09T04:24:17;13.10;1.00
22923;DHT22;11627;51.322;22.816;2022-09-09T04:26:43;12.90;1.00
22923;DHT22;11627;51.322;22.816;2022-09-09T04:29:09;13.10;1.00
22923;DHT22;11627;51.322;22.816;2022-09-09T04:31:35;13.20;1.00
22923;DHT22;11627;51.322;22.816;2022-09-09T04:34:01;13.30;1.00
22923;DHT22;11627;51.322;22.816;2022-09-09T04:36:32;13.10;1.00
22923;DHT22;11627;51.322;22.816;2022-09-09T04:43:50;13.20;1.00
22923;DHT22;11627;51.322;22.816;2022-09-09T04:48:43;13.30;1.00
22923;DHT22;11627;51.322;22.816;2022-09-09T04:51:13;12.90;1.00
22923;DHT22;11627;51.322;22.816;2022-09-09T04:53:39;12.80;1.00
22923;DHT22;11627;51.322;22.816;2022-09-09T04:56:11;13.00;1.00
22923;DHT22;11627;51.322;22.816;2022-09-09T04:58:39;13.00;1.00
22923;DHT22;11627;51.322;22.816;2022-09-09T05:03:36;12.80;1.00
22923;DHT22;11627;51.322;22.816;2022-09-09T05:08:34;12.80;1.00
22923;DHT22;11627;51.322;22.816;2022-09-09T05:11:01;12.90;1.00
22923;DHT22;11627;51.322;22.816;2022-09-09T05:13:27;13.30;1.00
22923;DHT22;11627;51.322;22.816;2022-09-09T05:15:53;13.20;1.00
22923;DHT22;11627;51.322;22.816;2022-09-09T05:18:20;13.40;1.00
22923;DHT22;11627;51.322;22.816;2022-09-09T05:20:48;13.20;1.00
22923;DHT22;11627;51.322;22.816;2022-09-09T05:23:14;13.40;1.00
22923;DHT22;11627;51.322;22.816;2022-09-09T05:25:40;13.40;1.00
22923;DHT22;11627;51.322;22.816;2022-09-09T05:28:06;13.10;1.00
22923;DHT22;11627;51.322;22.816;2022-09-09T05:30:33;12.90;1.00
22923;DHT22;11627;51.322;22.816;2022-09-09T05:32:59;13.20;1.00
22923;DHT22;11627;51.322;22.816;2022-09-09T05:37:52;13.10;1.00
22923;DHT22;11627;51.322;22.816;2022-09-09T05:42:44;13.30;1.00
22923;DHT22;11627;51.322;22.816;2022-09-09T05:45:09;12.90;1.00
22923;DHT22;11627;51.322;22.816;2022-09-09T05:47:36;13.30;1.00
22923;DHT22;11627;51.322;22.816;2022-09-09T05:50:03;13.40;1.00
22923;DHT22;11627;51.322;22.816;2022-09-09T05:54:56;13.20;1.00
22923;DHT22;11627;51.322;22.816;2022-09-09T05:57:22;13.00;1.00
22923;DHT22;11627;51.322;22.816;2022-09-09T05:59:48;13.50;1.00
22923;DHT22;11627;51.322;22.816;2022-09-09T06:02:15;13.50;1.00
22923;DHT22;11627;51.322;22.816;2022-09-09T06:04:41;13.50;1.00
22923;DHT22;11627;51.322;22.816;2022-09-09T06:07:07;13.20;1.00
22923;DHT22;11627;51.322;22.816;2022-09-09T06:11:59;13.30;1.00
22923;DHT22;11627;51.322;22.816;2022-09-09T06:16:52;13.40;1.00
22923;DHT22;11627;51.322;22.816;2022-09-09T06:19:18;13.30;1.00
22923;DHT22;11627;51.322;22.816;2022-09-09T06:21:45;13.50;1.00
22923;DHT22;11627;51.322;22.816;2022-09-09T06:29:09;13.40;1.00
22923;DHT22;11627;51.322;22.816;2022-09-09T06:31:36;13.60;1.00
22923;DHT22;11627;51.322;22.816;2022-09-09T06:34:05;13.10;1.00
22923;DHT22;11627;51.322;22.816;2022-09-09T06:36:34;13.30;1.00
22923;DHT22;11627;51.322;22.816;2022-09-09T06:39:02;13.30;1.00
22923;DHT22;11627;51.322;22.816;2022-09-09T06:41:30;13.40;1.00
22923;DHT22;11627;51.322;22.816;2022-09-09T06:43:57;13.40;1.00
22923;DHT22;11627;51.322;22.816;2022-09-09T06:46:25;13.60;1.00
22923;DHT22;11627;51.322;22.816;2022-09-09T06:48:56;13.50;1.00
22923;DHT22;11627;51.322;22.816;2022-09-09T06:51:33;13.20;1.00
22923;DHT22;11627;51.322;22.816;2022-09-09T06:54:01;13.60;1.00
22923;DHT22;11627;51.322;22.816;2022-09-09T06:56:30;13.60;1.00
22923;DHT22;11627;51.322;22.816;2022-09-09T06:59:02;13.20;1.00
22923;DHT22;11627;51.322;22.816;2022-09-09T07:01:32;13.70;1.00
22923;DHT22;11627;51.322;22.816;2022-09-09T07:03:59;13.20;1.00
22923;DHT22;11627;51.322;22.816;2022-09-09T07:08:58;13.20;1.00
22923;DHT22;11627;51.322;22.816;2022-09-09T07:11:29;12.90;1.00
22923;DHT22;11627;51.322;22.816;2022-09-09T07:13:59;13.30;1.00
22923;DHT22;11627;51.322;22.816;2022-09-09T07:16:28;13.30;1.00
22923;DHT22;11627;51.322;22.816;2022-09-09T07:18:58;13.20;1.00
22923;DHT22;11627;51.322;22.816;2022-09-09T07:21:25;13.20;3.40
22923;DHT22;11627;51.322;22.816;2022-09-09T07:26:23;13.30;1.60
22923;DHT22;11627;51.322;22.816;2022-09-09T07:28:50;13.10;4.10
22923;DHT22;11627;51.322;22.816;2022-09-09T07:31:28;13.30;1.00
22923;DHT22;11627;51.322;22.816;2022-09-09T07:34:01;13.20;1.00
22923;DHT22;11627;51.322;22.816;2022-09-09T07:36:46;13.20;1.00
22923;DHT22;11627;51.322;22.816;2022-09-09T07:39:14;13.30;6.90
22923;DHT22;11627;51.322;22.816;2022-09-09T07:41:48;13.30;1.20
22923;DHT22;11627;51.322;22.816;2022-09-09T07:44:20;13.40;5.80
22923;DHT22;11627;51.322;22.816;2022-09-09T07:46:47;13.50;2.10
22923;DHT22;11627;51.322;22.816;2022-09-09T07:49:14;13.40;9.80
22923;DHT22;11627;51.322;22.816;2022-09-09T07:51:42;13.30;4.40
22923;DHT22;11627;51.322;22.816;2022-09-09T07:54:12;13.50;3.60
22923;DHT22;11627;51.322;22.816;2022-09-09T07:56:40;13.50;1.60
22923;DHT22;11627;51.322;22.816;2022-09-09T07:59:07;13.20;8.50
22923;DHT22;11627;51.322;22.816;2022-09-09T08:01:39;13.40;8.10
22923;DHT22;11627;51.322;22.816;2022-09-09T08:04:10;13.40;4.60
22923;DHT22;11627;51.322;22.816;2022-09-09T08:06:45;13.40;4.10
22923;DHT22;11627;51.322;22.816;2022-09-09T08:09:21;13.40;5.10
22923;DHT22;11627;51.322;22.816;2022-09-09T08:14:17;13.40;13.80
22923;DHT22;11627;51.322;22.816;2022-09-09T08:16:46;13.50;12.00
22923;DHT22;11627;51.322;22.816;2022-09-09T08:19:13;13.40;4.50
22923;DHT22;11627;51.322;22.816;2022-09-09T08:21:41;13.60;13.30
22923;DHT22;11627;51.322;22.816;2022-09-09T08:24:08;13.50;14.70
22923;DHT22;11627;51.322;22.816;2022-09-09T08:26:40;13.40;15.40
22923;DHT22;11627;51.322;22.816;2022-09-09T08:29:09;13.70;15.80
22923;DHT22;11627;51.322;22.816;2022-09-09T08:31:41;13.50;15.60
22923;DHT22;11627;51.322;22.816;2022-09-09T08:34:09;13.70;14.40
22923;DHT22;11627;51.322;22.816;2022-09-09T08:36:41;14.00;12.70
22923;DHT22;11627;51.322;22.816;2022-09-09T08:39:09;13.70;14.50
22923;DHT22;11627;51.322;22.816;2022-09-09T08:41:52;13.80;13.20
22923;DHT22;11627;51.322;22.816;2022-09-09T08:50:40;13.80;8.00
22923;DHT22;11627;51.322;22.816;2022-09-09T08:53:19;13.70;13.40
22923;DHT22;11627;51.322;22.816;2022-09-09T08:58:18;13.90;14.10
22923;DHT22;11627;51.322;22.816;2022-09-09T09:03:53;13.80;12.50
22923;DHT22;11627;51.322;22.816;2022-09-09T09:10:37;14.10;12.60
22923;DHT22;11627;51.322;22.816;2022-09-09T09:18:58;13.90;16.70
22923;DHT22;11627;51.322;22.816;2022-09-09T09:21:36;14.00;13.90
22923;DHT22;11627;51.322;22.816;2022-09-09T09:24:12;13.70;17.70
22923;DHT22;11627;51.322;22.816;2022-09-09T09:26:43;13.80;18.00
22923;DHT22;11627;51.322;22.816;2022-09-09T09:29:16;13.90;18.40
22923;DHT22;11627;51.322;22.816;2022-09-09T09:31:46;14.00;13.30
22923;DHT22;11627;51.322;22.816;2022-09-09T09:34:14;14.00;16.80
22923;DHT22;11627;51.322;22.816;2022-09-09T09:36:45;14.10;15.10
22923;DHT22;11627;51.322;22.816;2022-09-09T09:39:28;14.00;14.60
22923;DHT22;11627;51.322;22.816;2022-09-09T09:44:29;14.20;14.70
22923;DHT22;11627;51.322;22.816;2022-09-09T09:47:14;13.90;14.20
22923;DHT22;11627;51.322;22.816;2022-09-09T09:50:17;14.20;8.00
22923;DHT22;11627;51.322;22.816;2022-09-09T09:52:56;14.20;6.20
22923;DHT22;11627;51.322;22.816;2022-09-09T09:55:25;14.40;7.90
22923;DHT22;11627;51.322;22.816;2022-09-09T09:57:51;14.10;10.90
22923;DHT22;11627;51.322;22.816;2022-09-09T10:00:19;14.40;11.70
22923;DHT22;11627;51.322;22.816;2022-09-09T10:02:47;14.40;12.70
22923;DHT22;11627;51.322;22.816;2022-09-09T10:05:18;14.20;11.50
22923;DHT22;11627;51.322;22.816;2022-09-09T10:08:05;14.10;11.60
22923;DHT22;11627;51.322;22.816;2022-09-09T10:19:37;14.00;14.20
22923;DHT22;11627;51.322;22.816;2022-09-09T10:33:04;14.60;12.60
22923;DHT22;11627;51.322;22.816;2022-09-09T10:38:45;14.40;10.40
22923;DHT22;11627;51.322;22.816;2022-09-09T10:44:15;14.40;11.30
22923;DHT22;11627;51.322;22.816;2022-09-09T10:55:37;14.60;9.80
22923;DHT22;11627;51.322;22.816;2022-09-09T10:58:12;14.20;8.30
22923;DHT22;11627;51.322;22.816;2022-09-09T11:03:20;14.40;8.10
22923;DHT22;11627;51.322;22.816;2022-09-09T11:06:04;14.20;8.30
22923;DHT22;11627;51.322;22.816;2022-09-09T11:08:34;14.50;9.20
22923;DHT22;11627;51.322;22.816;2022-09-09T11:22:30;14.70;9.40
22923;DHT22;11627;51.322;22.816;2022-09-09T11:25:19;14.30;10.50
22923;DHT22;11627;51.322;22.816;2022-09-09T11:42:35;14.60;8.00
22923;DHT22;11627;51.322;22.816;2022-09-09T11:45:25;14.70;7.20
22923;DHT22;11627;51.322;22.816;2022-09-09T11:48:04;14.40;6.60
22923;DHT22;11627;51.322;22.816;2022-09-09T11:50:37;14.40;7.70
22923;DHT22;11627;51.322;22.816;2022-09-09T11:53:19;14.40;8.80
22923;DHT22;11627;51.322;22.816;2022-09-09T11:55:59;14.60;10.50
22923;DHT22;11627;51.322;22.816;2022-09-09T11:58:59;14.70;9.60
22923;DHT22;11627;51.322;22.816;2022-09-09T12:01:35;14.30;4.90
22923;DHT22;11627;51.322;22.816;2022-09-09T12:09:55;14.60;8.50
22923;DHT22;11627;51.322;22.816;2022-09-09T12:12:32;14.30;10.50
22923;DHT22;11627;51.322;22.816;2022-09-09T12:17:45;14.40;10.20
22923;DHT22;11627;51.322;22.816;2022-09-09T12:20:37;14.50;11.60
22923;DHT22;11627;51.322;22.816;2022-09-09T12:34:14;14.20;16.30
22923;DHT22;11627;51.322;22.816;2022-09-09T12:36:44;14.40;18.90
22923;DHT22;11627;51.322;22.816;2022-09-09T12:39:44;14.40;16.90
22923;DHT22;11627;51.322;22.816;2022-09-09T12:42:20;14.40;13.20
22923;DHT22;11627;51.322;22.816;2022-09-09T12:44:59;14.40;12.20
22923;DHT22;11627;51.322;22.816;2022-09-09T12:50:03;14.70;19.40
22923;DHT22;11627;51.322;22.816;2022-09-09T12:52:33;14.50;19.70
22923;DHT22;11627;51.322;22.816;2022-09-09T12:55:03;14.30;19.50
22923;DHT22;11627;51.322;22.816;2022-09-09T12:57:35;14.50;14.70
22923;DHT22;11627;51.322;22.816;2022-09-09T13:00:12;14.50;16.60
22923;DHT22;11627;51.322;22.816;2022-09-09T13:02:56;14.20;23.00
22923;DHT22;11627;51.322;22.816;2022-09-09T13:05:42;14.50;16.70
22923;DHT22;11627;51.322;22.816;2022-09-09T13:08:11;14.30;23.80
22923;DHT22;11627;51.322;22.816;2022-09-09T13:13:27;14.80;23.10
22923;DHT22;11627;51.322;22.816;2022-09-09T13:16:25;14.60;17.50
22923;DHT22;11627;51.322;22.816;2022-09-09T13:18:56;14.60;23.80
22923;DHT22;11627;51.322;22.816;2022-09-09T13:21:32;14.40;22.80
22923;DHT22;11627;51.322;22.816;2022-09-09T13:24:05;14.80;23.80
22923;DHT22;11627;51.322;22.816;2022-09-09T13:26:33;14.40;23.70
22923;DHT22;11627;51.322;22.816;2022-09-09T13:29:31;14.60;24.20
22923;DHT22;11627;51.322;22.816;2022-09-09T13:32:16;14.90;23.70
22923;DHT22;11627;51.322;22.816;2022-09-09T13:34:54;14.70;25.40
22923;DHT22;11627;51.322;22.816;2022-09-09T13:37:37;14.60;20.10
22923;DHT22;11627;51.322;22.816;2022-09-09T13:40:17;14.60;21.10
22923;DHT22;11627;51.322;22.816;2022-09-09T13:42:45;14.60;27.10
22923;DHT22;11627;51.322;22.816;2022-09-09T13:45:21;14.70;27.00
22923;DHT22;11627;51.322;22.816;2022-09-09T13:47:50;14.70;27.80
22923;DHT22;11627;51.322;22.816;2022-09-09T13:52:53;14.60;27.40
22923;DHT22;11627;51.322;22.816;2022-09-09T13:55:21;14.70;29.20
22923;DHT22;11627;51.322;22.816;2022-09-09T13:57:59;14.70;29.00
22923;DHT22;11627;51.322;22.816;2022-09-09T14:00:29;14.70;29.10
22923;DHT22;11627;51.322;22.816;2022-09-09T14:02:56;14.60;26.90
22923;DHT22;11627;51.322;22.816;2022-09-09T14:05:24;14.90;27.20
22923;DHT22;11627;51.322;22.816;2022-09-09T14:07:51;14.70;28.10
22923;DHT22;11627;51.322;22.816;2022-09-09T14:10:17;14.50;27.00
22923;DHT22;11627;51.322;22.816;2022-09-09T14:12:43;14.70;25.20
22923;DHT22;11627;51.322;22.816;2022-09-09T14:15:11;14.70;22.10
22923;DHT22;11627;51.322;22.816;2022-09-09T14:17:38;14.40;28.10
22923;DHT22;11627;51.322;22.816;2022-09-09T14:20:06;14.50;24.40
22923;DHT22;11627;51.322;22.816;2022-09-09T14:22:36;14.90;28.00
22923;DHT22;11627;51.322;22.816;2022-09-09T14:25:03;14.70;28.90
22923;DHT22;11627;51.322;22.816;2022-09-09T14:27:32;14.50;30.20
22923;DHT22;11627;51.322;22.816;2022-09-09T14:29:59;15.00;29.00
22923;DHT22;11627;51.322;22.816;2022-09-09T14:32:27;14.70;27.00
22923;DHT22;11627;51.322;22.816;2022-09-09T14:37:20;14.70;27.10
22923;DHT22;11627;51.322;22.816;2022-09-09T14:39:46;14.90;28.00
22923;DHT22;11627;51.322;22.816;2022-09-09T14:42:20;14.50;28.90
22923;DHT22;11627;51.322;22.816;2022-09-09T14:44:46;14.60;28.30
22923;DHT22;11627;51.322;22.816;2022-09-09T14:47:16;14.40;24.40
22923;DHT22;11627;51.322;22.816;2022-09-09T14:49:48;14.80;27.80
22923;DHT22;11627;51.322;22.816;2022-09-09T14:52:15;14.70;28.60
22923;DHT22;11627;51.322;22.816;2022-09-09T14:57:07;14.90;30.10
22923;DHT22;11627;51.322;22.816;2022-09-09T14:59:33;14.70;30.30
22923;DHT22;11627;51.322;22.816;2022-09-09T15:06:55;14.60;29.00
22923;DHT22;11627;51.322;22.816;2022-09-09T15:09:21;14.80;30.00
22923;DHT22;11627;51.322;22.816;2022-09-09T15:11:48;14.40;29.60
22923;DHT22;11627;51.322;22.816;2022-09-09T15:14:14;14.40;30.70
22923;DHT22;11627;51.322;22.816;2022-09-09T15:16:40;14.40;31.50
22923;DHT22;11627;51.322;22.816;2022-09-09T15:19:06;14.50;31.20
22923;DHT22;11627;51.322;22.816;2022-09-09T15:21:34;14.60;26.00
22923;DHT22;11627;51.322;22.816;2022-09-09T15:24:01;14.50;27.80
22923;DHT22;11627;51.322;22.816;2022-09-09T15:26:27;14.60;30.50
22923;DHT22;11627;51.322;22.816;2022-09-09T15:31:26;14.80;32.20
22923;DHT22;11627;51.322;22.816;2022-09-09T15:34:01;14.70;32.40
22923;DHT22;11627;51.322;22.816;2022-09-09T15:36:44;14.60;31.00
22923;DHT22;11627;51.322;22.816;2022-09-09T15:39:17;14.50;29.70
22923;DHT22;11627;51.322;22.816;2022-09-09T15:41:47;14.50;24.70
22923;DHT22;11627;51.322;22.816;2022-09-09T15:44:14;14.50;29.50
22923;DHT22;11627;51.322;22.816;2022-09-09T15:49:22;14.60;29.60
22923;DHT22;11627;51.322;22.816;2022-09-09T15:52:00;14.60;22.60
22923;DHT22;11627;51.322;22.816;2022-09-09T15:54:32;14.50;27.40
22923;DHT22;11627;51.322;22.816;2022-09-09T15:57:10;14.60;21.30
22923;DHT22;11627;51.322;22.816;2022-09-09T16:04:30;14.60;27.30
22923;DHT22;11627;51.322;22.816;2022-09-09T16:07:02;14.50;23.20
22923;DHT22;11627;51.322;22.816;2022-09-09T16:09:30;14.80;27.60
22923;DHT22;11627;51.322;22.816;2022-09-09T16:11:58;14.50;26.70
22923;DHT22;11627;51.322;22.816;2022-09-09T16:14:26;14.50;31.50
22923;DHT22;11627;51.322;22.816;2022-09-09T16:16:53;14.80;30.80
22923;DHT22;11627;51.322;22.816;2022-09-09T16:21:47;14.40;28.90
22923;DHT22;11627;51.322;22.816;2022-09-09T16:24:17;14.50;23.50
22923;DHT22;11627;51.322;22.816;2022-09-09T16:26:47;14.40;30.00
22923;DHT22;11627;51.322;22.816;2022-09-09T16:29:15;14.40;30.40
22923;DHT22;11627;51.322;22.816;2022-09-09T16:31:43;14.40;32.30
22923;DHT22;11627;51.322;22.816;2022-09-09T16:34:10;14.60;33.80
22923;DHT22;11627;51.322;22.816;2022-09-09T16:36:37;14.40;33.90
22923;DHT22;11627;51.322;22.816;2022-09-09T16:39:15;14.20;28.60
22923;DHT22;11627;51.322;22.816;2022-09-09T16:41:43;14.40;30.00
22923;DHT22;11627;51.322;22.816;2022-09-09T16:44:14;14.40;25.30
22923;DHT22;11627;51.322;22.816;2022-09-09T16:46:44;14.30;27.20
22923;DHT22;11627;51.322;22.816;2022-09-09T16:49:14;14.30;26.10
22923;DHT22;11627;51.322;22.816;2022-09-09T16:51:46;14.50;32.40
22923;DHT22;11627;51.322;22.816;2022-09-09T16:54:14;14.40;31.10
22923;DHT22;11627;51.322;22.816;2022-09-09T16:56:43;14.10;30.90
22923;DHT22;11627;51.322;22.816;2022-09-09T16:59:14;14.00;31.50
22923;DHT22;11627;51.322;22.816;2022-09-09T17:01:43;14.00;27.30
22923;DHT22;11627;51.322;22.816;2022-09-09T17:04:15;14.10;31.20
22923;DHT22;11627;51.322;22.816;2022-09-09T17:06:47;14.10;32.20
22923;DHT22;11627;51.322;22.816;2022-09-09T17:09:14;14.20;32.20
22923;DHT22;11627;51.322;22.816;2022-09-09T17:11:41;14.00;30.80
22923;DHT22;11627;51.322;22.816;2022-09-09T17:14:10;14.00;26.40
22923;DHT22;11627;51.322;22.816;2022-09-09T17:16:38;14.00;30.40
22923;DHT22;11627;51.322;22.816;2022-09-09T17:19:05;14.30;29.10
22923;DHT22;11627;51.322;22.816;2022-09-09T17:21:35;14.20;28.30
22923;DHT22;11627;51.322;22.816;2022-09-09T17:24:03;13.90;29.20
22923;DHT22;11627;51.322;22.816;2022-09-09T17:26:31;14.30;29.80
22923;DHT22;11627;51.322;22.816;2022-09-09T17:29:00;14.30;29.90
22923;DHT22;11627;51.322;22.816;2022-09-09T17:31:28;14.10;30.80
22923;DHT22;11627;51.322;22.816;2022-09-09T17:33:56;14.30;30.50
22923;DHT22;11627;51.322;22.816;2022-09-09T17:36:27;13.90;30.10
22923;DHT22;11627;51.322;22.816;2022-09-09T17:38:54;13.80;28.50
22923;DHT22;11627;51.322;22.816;2022-09-09T17:41:25;13.80;28.90
22923;DHT22;11627;51.322;22.816;2022-09-09T17:44:03;13.90;27.90
22923;DHT22;11627;51.322;22.816;2022-09-09T17:46:31;14.20;30.50
22923;DHT22;11627;51.322;22.816;2022-09-09T17:49:04;14.00;28.60
22923;DHT22;11627;51.322;22.816;2022-09-09T17:51:33;13.90;21.00
22923;DHT22;11627;51.322;22.816;2022-09-09T17:54:01;14.20;29.00
22923;DHT22;11627;51.322;22.816;2022-09-09T17:56:35;13.90;27.30
22923;DHT22;11627;51.322;22.816;2022-09-09T17:59:04;14.20;28.10
22923;DHT22;11627;51.322;22.816;2022-09-09T18:01:34;14.00;19.40
22923;DHT22;11627;51.322;22.816;2022-09-09T18:04:03;13.90;18.10
22923;DHT22;11627;51.322;22.816;2022-09-09T18:06:35;14.10;26.20
22923;DHT22;11627;51.322;22.816;2022-09-09T18:09:11;14.00;28.40
22923;DHT22;11627;51.322;22.816;2022-09-09T18:11:42;13.90;21.20
22923;DHT22;11627;51.322;22.816;2022-09-09T18:14:15;13.50;28.20
22923;DHT22;11627;51.322;22.816;2022-09-09T18:16:43;13.90;27.80
22923;DHT22;11627;51.322;22.816;2022-09-09T18:19:11;13.80;29.00
22923;DHT22;11627;51.322;22.816;2022-09-09T18:21:39;13.70;22.70
22923;DHT22;11627;51.322;22.816;2022-09-09T18:24:06;13.60;22.00
22923;DHT22;11627;51.322;22.816;2022-09-09T18:26:33;13.60;27.80
22923;DHT22;11627;51.322;22.816;2022-09-09T18:29:02;13.60;20.10
22923;DHT22;11627;51.322;22.816;2022-09-09T18:31:31;13.60;20.30
22923;DHT22;11627;51.322;22.816;2022-09-09T18:34:00;13.60;28.30
22923;DHT22;11627;51.322;22.816;2022-09-09T18:36:40;13.50;29.70
22923;DHT22;11627;51.322;22.816;2022-09-09T18:39:09;13.50;20.70
22923;DHT22;11627;51.322;22.816;2022-09-09T18:41:39;13.50;20.10
22923;DHT22;11627;51.322;22.816;2022-09-09T18:44:12;13.60;22.60
22923;DHT22;11627;51.322;22.816;2022-09-09T18:46:41;13.50;22.30
22923;DHT22;11627;51.322;22.816;2022-09-09T18:49:08;13.40;30.10
22923;DHT22;11627;51.322;22.816;2022-09-09T18:51:36;13.50;21.80
22923;DHT22;11627;51.322;22.816;2022-09-09T18:54:07;13.60;20.90
22923;DHT22;11627;51.322;22.816;2022-09-09T18:56:37;13.70;28.50
22923;DHT22;11627;51.322;22.816;2022-09-09T18:59:05;13.70;27.50
22923;DHT22;11627;51.322;22.816;2022-09-09T19:01:33;13.10;26.00
22923;DHT22;11627;51.322;22.816;2022-09-09T19:04:01;13.50;18.50
22923;DHT22;11627;51.322;22.816;2022-09-09T19:06:30;13.50;25.30
22923;DHT22;11627;51.322;22.816;2022-09-09T19:08:57;13.80;25.30
22923;DHT22;11627;51.322;22.816;2022-09-09T19:11:26;13.20;18.30
22923;DHT22;11627;51.322;22.816;2022-09-09T19:14:00;13.60;23.10
22923;DHT22;11627;51.322;22.816;2022-09-09T19:16:31;13.60;18.90
22923;DHT22;11627;51.322;22.816;2022-09-09T19:19:03;13.30;25.90
22923;DHT22;11627;51.322;22.816;2022-09-09T19:21:33;13.50;20.50
22923;DHT22;11627;51.322;22.816;2022-09-09T19:26:37;13.40;21.30
22923;DHT22;11627;51.322;22.816;2022-09-09T19:29:11;13.70;22.00
22923;DHT22;11627;51.322;22.816;2022-09-09T19:31:40;13.60;22.60
22923;DHT22;11627;51.322;22.816;2022-09-09T19:34:10;13.40;27.50
22923;DHT22;11627;51.322;22.816;2022-09-09T19:36:36;13.60;26.90
22923;DHT22;11627;51.322;22.816;2022-09-09T19:39:03;13.50;26.90
22923;DHT22;11627;51.322;22.816;2022-09-09T19:43:58;13.40;26.10